Terminal Aerodrome Forecast
Issued by NWS Omaha/Valley, NE

Home | Current Version | Previous Version | Text Only | Print | Product List | Glossary Off
Versions: 1 2 3 4 5 6 7 8 9 10 11 12 13 14 15

000
FTUS43 KOAX 271729
TAFOFK
TAF
KOFK 271729Z 2718/2818 33020G27KT P6SM BKN100
     FM280000 32011KT P6SM BKN100
     FM280300 28008KT P6SM SCT100
     FM281400 30015G27KT P6SM SCT150=

USA.gov is the U.S. government's official web portal to all federal, state and local government web resources and services.